createdAt,value
2022-10-22T00:00:11.029Z,1007.45
2022-10-22T00:01:10.860Z,1007.44
2022-10-22T00:02:10.860Z,1007.48
2022-10-22T00:03:11.896Z,1007.49
2022-10-22T00:04:10.880Z,1007.47
2022-10-22T00:05:11.810Z,1007.46
2022-10-22T00:06:10.767Z,1007.46
2022-10-22T00:07:10.763Z,1007.49
2022-10-22T00:08:10.774Z,1007.48
2022-10-22T00:09:10.775Z,1007.46
2022-10-22T00:10:10.709Z,1007.47
2022-10-22T00:11:10.708Z,1007.46
2022-10-22T00:12:10.741Z,1007.51
2022-10-22T00:13:10.874Z,1007.51
2022-10-22T00:14:10.713Z,1007.47
2022-10-22T00:15:10.699Z,1007.56
2022-10-22T00:16:10.628Z,1007.51
2022-10-22T00:17:11.662Z,1007.48
2022-10-22T00:18:10.729Z,1007.51
2022-10-22T00:19:10.630Z,1007.49
2022-10-22T00:20:10.612Z,1007.54
2022-10-22T00:21:10.592Z,1007.58
2022-10-22T00:22:10.552Z,1007.58
2022-10-22T00:23:10.570Z,1007.54
2022-10-22T00:24:10.554Z,1007.50
2022-10-22T00:25:10.562Z,1007.52
2022-10-22T00:26:10.754Z,1007.56
2022-10-22T00:27:10.512Z,1007.60
2022-10-22T00:28:10.491Z,1007.58
2022-10-22T00:29:10.495Z,1007.53
2022-10-22T00:30:10.502Z,1007.58
2022-10-22T00:31:10.592Z,1007.56
2022-10-22T00:32:10.450Z,1007.60
2022-10-22T00:33:11.183Z,1007.57
2022-10-22T00:34:10.468Z,1007.61
2022-10-22T00:35:10.401Z,1007.58
2022-10-22T00:36:10.437Z,1007.64
2022-10-22T00:37:10.366Z,1007.55
2022-10-22T00:38:10.377Z,1007.57
2022-10-22T00:39:10.324Z,1007.62
2022-10-22T00:40:10.338Z,1007.60
2022-10-22T00:41:10.349Z,1007.60
2022-10-22T00:42:10.366Z,1007.58
2022-10-22T00:43:10.326Z,1007.61
2022-10-22T00:44:10.321Z,1007.63
2022-10-22T00:45:10.358Z,1007.63
2022-10-22T00:46:10.369Z,1007.57
2022-10-22T00:47:10.312Z,1007.62
2022-10-22T00:48:10.233Z,1007.61
2022-10-22T00:49:10.277Z,1007.62
2022-10-22T00:50:10.387Z,1007.62
2022-10-22T00:51:10.285Z,1007.63
2022-10-22T00:52:10.235Z,1007.62
2022-10-22T00:53:10.144Z,1007.57
2022-10-22T00:54:10.218Z,1007.48
2022-10-22T00:55:10.122Z,1007.49
2022-10-22T00:56:10.140Z,1007.54
2022-10-22T00:57:10.146Z,1007.51
2022-10-22T00:58:10.088Z,1007.52
2022-10-22T00:59:10.149Z,1007.49
2022-10-22T01:00:10.109Z,1007.52
2022-10-22T01:01:10.156Z,1007.51
2022-10-22T01:02:10.098Z,1007.52
2022-10-22T01:03:10.128Z,1007.51
2022-10-22T01:04:11.069Z,1007.53
2022-10-22T01:05:10.026Z,1007.49
2022-10-22T01:06:10.102Z,1007.52
2022-10-22T01:07:09.984Z,1007.51
2022-10-22T01:09:10.041Z,1007.61
2022-10-22T01:10:09.977Z,1007.59
2022-10-22T01:11:09.938Z,1007.51
2022-10-22T01:12:09.933Z,1007.55
2022-10-22T01:13:09.966Z,1007.50
2022-10-22T01:14:09.903Z,1007.53
2022-10-22T01:15:09.890Z,1007.53
2022-10-22T01:16:09.935Z,1007.48
2022-10-22T01:17:10.008Z,1007.49
2022-10-22T01:18:09.859Z,1007.43
2022-10-22T01:19:09.824Z,1007.42
2022-10-22T01:20:09.876Z,1007.43
2022-10-22T01:21:09.825Z,1007.41
2022-10-22T01:22:19.589Z,1007.42
2022-10-22T01:23:09.829Z,1007.42
2022-10-22T01:24:09.846Z,1007.49
2022-10-22T01:25:09.776Z,1007.47
2022-10-22T01:26:09.774Z,1007.40
2022-10-22T01:27:09.773Z,1007.43
2022-10-22T01:28:09.692Z,1007.40
2022-10-22T01:29:09.706Z,1007.34
2022-10-22T01:30:09.684Z,1007.38
2022-10-22T01:31:09.696Z,1007.37
2022-10-22T01:32:09.756Z,1007.34
2022-10-22T01:33:09.684Z,1007.34
2022-10-22T01:34:09.665Z,1007.32
2022-10-22T01:35:09.692Z,1007.28
2022-10-22T01:36:09.751Z,1007.36
2022-10-22T01:37:09.636Z,1007.35
2022-10-22T01:38:09.584Z,1007.32
2022-10-22T01:39:09.651Z,1007.34
2022-10-22T01:40:09.541Z,1007.27
2022-10-22T01:41:09.534Z,1007.26
2022-10-22T01:42:09.533Z,1007.21
2022-10-22T01:43:09.556Z,1007.25
2022-10-22T01:44:09.499Z,1007.24
2022-10-22T01:45:09.509Z,1007.24
2022-10-22T01:46:09.470Z,1007.24
2022-10-22T01:47:09.491Z,1007.22
2022-10-22T01:48:09.522Z,1007.25
2022-10-22T01:49:09.511Z,1007.24
2022-10-22T01:50:09.430Z,1007.27
2022-10-22T01:51:09.442Z,1007.32
2022-10-22T01:52:09.451Z,1007.26
2022-10-22T01:53:09.394Z,1007.31
2022-10-22T01:54:09.453Z,1007.24
2022-10-22T01:55:09.393Z,1007.34
2022-10-22T01:56:09.413Z,1007.34
2022-10-22T01:57:09.353Z,1007.34
2022-10-22T01:58:09.323Z,1007.32
2022-10-22T01:59:09.418Z,1007.26
2022-10-22T02:00:09.333Z,1007.30
2022-10-22T02:01:09.345Z,1007.29
2022-10-22T02:02:09.313Z,1007.25
2022-10-22T02:03:09.273Z,1007.23
2022-10-22T02:04:09.243Z,1007.23
2022-10-22T02:05:09.244Z,1007.26
2022-10-22T02:06:09.229Z,1007.38
2022-10-22T02:07:09.213Z,1007.36
2022-10-22T02:08:18.568Z,1007.35
2022-10-22T02:09:09.254Z,1007.27
2022-10-22T02:10:09.153Z,1007.29
2022-10-22T02:11:09.120Z,1007.22
2022-10-22T02:12:09.132Z,1007.26
2022-10-22T02:13:09.110Z,1007.32
2022-10-22T02:14:09.134Z,1007.40
2022-10-22T02:15:09.068Z,1007.36
2022-10-22T02:16:09.059Z,1007.32
2022-10-22T02:17:09.049Z,1007.33
2022-10-22T02:18:09.050Z,1007.35
2022-10-22T02:19:09.032Z,1007.34
2022-10-22T02:20:09.030Z,1007.40
2022-10-22T02:22:08.988Z,1007.41
2022-10-22T02:23:08.983Z,1007.40
2022-10-22T02:24:08.977Z,1007.34
2022-10-22T02:25:08.959Z,1007.34
2022-10-22T02:26:08.962Z,1007.35
2022-10-22T02:27:08.940Z,1007.29
2022-10-22T02:28:08.909Z,1007.36
2022-10-22T02:29:08.902Z,1007.41
2022-10-22T02:30:08.942Z,1007.41
2022-10-22T02:31:08.901Z,1007.38
2022-10-22T02:32:08.857Z,1007.34
2022-10-22T02:33:08.839Z,1007.36
2022-10-22T02:34:08.836Z,1007.29
2022-10-22T02:35:08.807Z,1007.34
2022-10-22T02:36:08.826Z,1007.39
2022-10-22T02:37:08.810Z,1007.39
2022-10-22T02:38:08.783Z,1007.39
2022-10-22T02:39:08.792Z,1007.45
2022-10-22T02:40:08.766Z,1007.41
2022-10-22T02:41:08.734Z,1007.42
2022-10-22T02:42:08.743Z,1007.38
2022-10-22T02:43:08.731Z,1007.45
2022-10-22T02:44:08.697Z,1007.43
2022-10-22T02:45:08.683Z,1007.44
2022-10-22T02:46:08.673Z,1007.46
2022-10-22T02:47:08.680Z,1007.49
2022-10-22T02:48:08.704Z,1007.48
2022-10-22T02:49:08.663Z,1007.53
2022-10-22T02:50:10.346Z,1007.46
2022-10-22T02:51:08.629Z,1007.47
2022-10-22T02:52:08.595Z,1007.41
2022-10-22T02:53:08.597Z,1007.44
2022-10-22T02:54:08.579Z,1007.47
2022-10-22T02:55:08.572Z,1007.39
2022-10-22T02:56:08.549Z,1007.42
2022-10-22T02:57:08.621Z,1007.38
2022-10-22T02:58:08.558Z,1007.32
2022-10-22T02:59:08.507Z,1007.35
2022-10-22T03:00:08.510Z,1007.38
2022-10-22T03:01:10.307Z,1007.42
2022-10-22T03:02:08.478Z,1007.47
2022-10-22T03:03:08.446Z,1007.43
2022-10-22T03:04:08.478Z,1007.45
2022-10-22T03:05:08.443Z,1007.40
2022-10-22T03:06:08.416Z,1007.47
2022-10-22T03:07:08.394Z,1007.48
2022-10-22T03:08:08.394Z,1007.49
2022-10-22T03:09:08.460Z,1007.48
2022-10-22T03:10:08.362Z,1007.46
2022-10-22T03:11:08.344Z,1007.45
2022-10-22T03:12:08.334Z,1007.40
2022-10-22T03:13:08.337Z,1007.44
2022-10-22T03:14:08.327Z,1007.49
2022-10-22T03:15:08.302Z,1007.51
2022-10-22T03:16:08.359Z,1007.50
2022-10-22T03:17:08.287Z,1007.49
2022-10-22T03:18:08.260Z,1007.49
2022-10-22T03:19:08.253Z,1007.45
2022-10-22T03:20:08.287Z,1007.43
2022-10-22T03:21:08.236Z,1007.42
2022-10-22T03:22:08.221Z,1007.49
2022-10-22T03:23:08.192Z,1007.53
2022-10-22T03:24:08.193Z,1007.54
2022-10-22T03:25:08.182Z,1007.47
2022-10-22T03:26:08.175Z,1007.58
2022-10-22T03:27:08.151Z,1007.56
2022-10-22T03:28:08.149Z,1007.58
2022-10-22T03:29:08.145Z,1007.57
2022-10-22T03:30:08.100Z,1007.56
2022-10-22T03:31:08.081Z,1007.62
2022-10-22T03:32:08.094Z,1007.59
2022-10-22T03:33:08.061Z,1007.56
2022-10-22T03:34:08.050Z,1007.54
2022-10-22T03:35:08.031Z,1007.57
2022-10-22T03:36:08.021Z,1007.57
2022-10-22T03:37:08.070Z,1007.59
2022-10-22T03:38:08.020Z,1007.56
2022-10-22T03:39:07.993Z,1007.63
2022-10-22T03:40:07.971Z,1007.54
2022-10-22T03:41:07.973Z,1007.61
2022-10-22T03:42:07.947Z,1007.65
2022-10-22T03:43:07.950Z,1007.65
2022-10-22T03:44:07.910Z,1007.63
2022-10-22T03:45:07.920Z,1007.62
2022-10-22T03:46:07.896Z,1007.62
2022-10-22T03:47:07.884Z,1007.61
2022-10-22T03:48:07.903Z,1007.67
2022-10-22T03:49:07.875Z,1007.70
2022-10-22T03:50:07.847Z,1007.67
2022-10-22T03:51:07.820Z,1007.64
2022-10-22T03:52:07.831Z,1007.63
2022-10-22T03:53:07.799Z,1007.62
2022-10-22T03:54:07.799Z,1007.65
2022-10-22T03:55:07.770Z,1007.58
2022-10-22T03:56:07.761Z,1007.58
2022-10-22T03:57:07.774Z,1007.59
2022-10-22T03:58:07.749Z,1007.61
2022-10-22T03:59:07.753Z,1007.67
2022-10-22T04:00:07.723Z,1007.65
2022-10-22T04:01:07.762Z,1007.65
2022-10-22T04:02:07.714Z,1007.64
2022-10-22T04:03:07.682Z,1007.67
2022-10-22T04:04:07.683Z,1007.67
2022-10-22T04:05:07.732Z,1007.72
2022-10-22T04:06:07.650Z,1007.80
2022-10-22T04:07:07.619Z,1007.82
2022-10-22T04:08:07.607Z,1007.81
2022-10-22T04:09:07.702Z,1007.84
2022-10-22T04:10:07.611Z,1007.79
2022-10-22T04:11:07.602Z,1007.83
2022-10-22T04:12:07.573Z,1007.86
2022-10-22T04:13:07.558Z,1007.86
2022-10-22T04:14:07.540Z,1007.87
2022-10-22T04:15:07.540Z,1007.85
2022-10-22T04:16:07.531Z,1007.84
2022-10-22T04:17:07.486Z,1007.84
2022-10-22T04:18:07.477Z,1007.85
2022-10-22T04:19:07.456Z,1007.85
2022-10-22T04:20:07.454Z,1007.86
2022-10-22T04:21:07.434Z,1007.88
2022-10-22T04:22:07.450Z,1007.87
2022-10-22T04:23:07.439Z,1007.86
2022-10-22T04:24:07.411Z,1007.84
2022-10-22T04:25:07.397Z,1007.89
2022-10-22T04:26:07.391Z,1007.92
2022-10-22T04:27:07.379Z,1007.89
2022-10-22T04:28:07.366Z,1007.90
2022-10-22T04:29:09.576Z,1007.88
2022-10-22T04:30:07.317Z,1007.91
2022-10-22T04:31:07.305Z,1007.88
2022-10-22T04:32:07.306Z,1007.95
2022-10-22T04:33:07.307Z,1007.95
2022-10-22T04:34:07.290Z,1007.96
2022-10-22T04:35:07.268Z,1008.06
2022-10-22T04:36:07.255Z,1008.04
2022-10-22T04:37:07.237Z,1008.04
2022-10-22T04:38:07.298Z,1008.02
2022-10-22T04:39:07.214Z,1008.05
2022-10-22T04:40:07.204Z,1008.04
2022-10-22T04:41:07.175Z,1008.04
2022-10-22T04:42:07.187Z,1008.04
2022-10-22T04:43:07.175Z,1008.07
2022-10-22T04:44:09.907Z,1008.10
2022-10-22T04:45:08.122Z,1008.09
2022-10-22T04:46:07.127Z,1008.12
2022-10-22T04:47:07.103Z,1008.12
2022-10-22T04:48:07.092Z,1008.18
2022-10-22T04:49:07.085Z,1008.16
2022-10-22T04:50:07.104Z,1008.19
2022-10-22T04:51:07.057Z,1008.13
2022-10-22T04:52:07.076Z,1008.21
2022-10-22T04:53:07.022Z,1008.27
2022-10-22T04:54:07.029Z,1008.16
2022-10-22T04:55:07.011Z,1008.13
2022-10-22T04:56:07.017Z,1008.27
2022-10-22T04:57:06.983Z,1008.23
2022-10-22T04:58:06.982Z,1008.25
2022-10-22T04:59:06.955Z,1008.28
2022-10-22T05:00:06.953Z,1008.24
2022-10-22T05:01:07.019Z,1008.18
2022-10-22T05:02:06.933Z,1008.21
2022-10-22T05:03:06.900Z,1008.20
2022-10-22T05:04:06.912Z,1008.24
2022-10-22T05:05:06.891Z,1008.22
2022-10-22T05:06:06.881Z,1008.25
2022-10-22T05:07:06.875Z,1008.23
2022-10-22T05:08:06.841Z,1008.23
2022-10-22T05:09:06.918Z,1008.22
2022-10-22T05:10:06.801Z,1008.23
2022-10-22T05:11:06.805Z,1008.21
2022-10-22T05:12:06.779Z,1008.21
2022-10-22T05:13:06.786Z,1008.18
2022-10-22T05:14:06.751Z,1008.24
2022-10-22T05:15:06.738Z,1008.24
2022-10-22T05:16:06.743Z,1008.25
2022-10-22T05:17:06.727Z,1008.34
2022-10-22T05:18:06.734Z,1008.33
2022-10-22T05:19:06.691Z,1008.33
2022-10-22T05:20:06.679Z,1008.32
2022-10-22T05:21:06.671Z,1008.37
2022-10-22T05:22:06.664Z,1008.36
2022-10-22T05:23:06.662Z,1008.39
2022-10-22T05:24:06.630Z,1008.36
2022-10-22T05:25:06.623Z,1008.41
2022-10-22T05:26:06.612Z,1008.49
2022-10-22T05:27:06.671Z,1008.47
2022-10-22T05:28:06.924Z,1008.42
2022-10-22T05:29:06.548Z,1008.44
2022-10-22T05:30:06.560Z,1008.42
2022-10-22T05:31:06.563Z,1008.45
2022-10-22T05:32:06.533Z,1008.50
2022-10-22T05:33:06.519Z,1008.48
2022-10-22T05:34:06.504Z,1008.45
2022-10-22T05:35:06.480Z,1008.48
2022-10-22T05:36:06.499Z,1008.47
2022-10-22T05:37:06.480Z,1008.49
2022-10-22T05:38:06.461Z,1008.47
2022-10-22T05:39:06.462Z,1008.44
2022-10-22T05:40:19.103Z,1008.52
2022-10-22T05:41:07.422Z,1008.50
2022-10-22T05:42:06.410Z,1008.50
2022-10-22T05:43:06.379Z,1008.60
2022-10-22T05:44:06.418Z,1008.57
2022-10-22T05:45:06.363Z,1008.67
2022-10-22T05:46:06.378Z,1008.55
2022-10-22T05:47:06.355Z,1008.64
2022-10-22T05:48:06.406Z,1008.63
2022-10-22T05:49:06.345Z,1008.66
2022-10-22T05:50:06.312Z,1008.65
2022-10-22T05:51:06.275Z,1008.67
2022-10-22T05:52:06.281Z,1008.69
2022-10-22T05:53:06.271Z,1008.71
2022-10-22T05:54:06.246Z,1008.76
2022-10-22T05:55:06.237Z,1008.67
2022-10-22T05:56:06.230Z,1008.73
2022-10-22T05:57:07.197Z,1008.72
2022-10-22T05:58:06.217Z,1008.77
2022-10-22T05:59:06.191Z,1008.74
2022-10-22T06:00:06.197Z,1008.76
2022-10-22T06:01:06.155Z,1008.84
2022-10-22T06:02:06.178Z,1008.84
2022-10-22T06:03:06.138Z,1008.85
2022-10-22T06:04:06.105Z,1008.83
2022-10-22T06:05:06.115Z,1008.86
2022-10-22T06:06:06.087Z,1008.88
2022-10-22T06:07:06.078Z,1008.89
2022-10-22T06:08:06.077Z,1008.90
2022-10-22T06:09:06.137Z,1008.92
2022-10-22T06:10:06.042Z,1008.93
2022-10-22T06:11:06.043Z,1008.99
2022-10-22T06:12:05.996Z,1008.92
2022-10-22T06:13:06.021Z,1008.94
2022-10-22T06:14:05.979Z,1008.94
2022-10-22T06:15:06.016Z,1008.95
2022-10-22T06:16:05.950Z,1008.99
2022-10-22T06:17:05.956Z,1008.97
2022-10-22T06:18:05.935Z,1008.95
2022-10-22T06:19:05.927Z,1009.02
2022-10-22T06:21:05.914Z,1009.01
2022-10-22T06:22:05.901Z,1009.03
2022-10-22T06:23:05.877Z,1009.10
2022-10-22T06:24:05.856Z,1009.16
2022-10-22T06:25:05.853Z,1009.14
2022-10-22T06:26:05.870Z,1009.16
2022-10-22T06:27:05.812Z,1009.21
2022-10-22T06:28:05.825Z,1009.24
2022-10-22T06:29:05.794Z,1009.27
2022-10-22T06:30:05.796Z,1009.27
2022-10-22T06:31:05.799Z,1009.27
2022-10-22T06:32:05.747Z,1009.30
2022-10-22T06:33:05.741Z,1009.30
2022-10-22T06:34:05.731Z,1009.36
2022-10-22T06:35:05.733Z,1009.41
2022-10-22T06:36:07.694Z,1009.35
2022-10-22T06:37:05.702Z,1009.38
2022-10-22T06:38:05.698Z,1009.39
2022-10-22T06:39:05.667Z,1009.38
2022-10-22T06:40:05.657Z,1009.42
2022-10-22T06:41:05.659Z,1009.43
2022-10-22T06:42:05.623Z,1009.44
2022-10-22T06:43:05.625Z,1009.46
2022-10-22T06:44:05.615Z,1009.47
2022-10-22T06:45:05.596Z,1009.52
2022-10-22T06:46:05.587Z,1009.48
2022-10-22T06:47:05.573Z,1009.53
2022-10-22T06:48:05.575Z,1009.50
2022-10-22T06:49:05.538Z,1009.48
2022-10-22T06:50:05.521Z,1009.50
2022-10-22T06:51:05.533Z,1009.52
2022-10-22T06:52:05.508Z,1009.49
2022-10-22T06:53:05.514Z,1009.49
2022-10-22T06:54:05.474Z,1009.50
2022-10-22T06:55:05.470Z,1009.52
2022-10-22T06:56:05.456Z,1009.58
2022-10-22T06:57:05.442Z,1009.57
2022-10-22T06:58:05.421Z,1009.56
2022-10-22T06:59:05.434Z,1009.64
2022-10-22T07:00:05.382Z,1009.64
2022-10-22T07:01:05.448Z,1009.65
2022-10-22T07:02:05.384Z,1009.67
2022-10-22T07:03:05.349Z,1009.64
2022-10-22T07:04:05.340Z,1009.73
2022-10-22T07:05:05.348Z,1009.64
2022-10-22T07:06:05.322Z,1009.72
2022-10-22T07:07:05.324Z,1009.75
2022-10-22T07:08:05.287Z,1009.75
2022-10-22T07:09:05.396Z,1009.75
2022-10-22T07:10:05.292Z,1009.73
2022-10-22T07:11:05.266Z,1009.75
2022-10-22T07:12:05.311Z,1009.75
2022-10-22T07:13:05.240Z,1009.76
2022-10-22T07:14:05.230Z,1009.72
2022-10-22T07:15:05.235Z,1009.79
2022-10-22T07:16:05.197Z,1009.68
2022-10-22T07:17:05.177Z,1009.77
2022-10-22T07:18:05.180Z,1009.70
2022-10-22T07:19:05.160Z,1009.84
2022-10-22T07:20:05.167Z,1009.81
2022-10-22T07:21:05.130Z,1009.82
2022-10-22T07:22:05.107Z,1009.82
2022-10-22T07:23:05.109Z,1009.85
2022-10-22T07:24:05.074Z,1009.79
2022-10-22T07:25:07.283Z,1009.83
2022-10-22T07:26:05.079Z,1009.82
2022-10-22T07:27:08.141Z,1009.84
2022-10-22T07:28:06.045Z,1009.87
2022-10-22T07:29:05.031Z,1009.89
2022-10-22T07:30:05.018Z,1009.87
2022-10-22T07:31:04.998Z,1009.88
2022-10-22T07:32:04.984Z,1009.90
2022-10-22T07:33:05.322Z,1009.94
2022-10-22T07:34:04.976Z,1009.96
2022-10-22T07:35:04.951Z,1009.93
2022-10-22T07:36:04.935Z,1010.08
2022-10-22T07:37:04.935Z,1009.96
2022-10-22T07:38:04.935Z,1009.99
2022-10-22T07:39:04.912Z,1010.05
2022-10-22T07:40:04.885Z,1010.01
2022-10-22T07:41:04.899Z,1010.08
2022-10-22T07:42:04.883Z,1010.08
2022-10-22T07:43:04.871Z,1010.05
2022-10-22T07:44:04.814Z,1010.09
2022-10-22T07:45:04.840Z,1010.12
2022-10-22T07:46:04.812Z,1010.12
2022-10-22T07:47:04.785Z,1010.17
2022-10-22T07:48:04.788Z,1010.23
2022-10-22T07:49:04.777Z,1010.20
2022-10-22T07:50:04.754Z,1010.26
2022-10-22T07:51:04.735Z,1010.26
2022-10-22T07:52:04.735Z,1010.29
2022-10-22T07:53:04.737Z,1010.28
2022-10-22T07:54:04.690Z,1010.32
2022-10-22T07:55:04.732Z,1010.31
2022-10-22T07:56:04.677Z,1010.29
2022-10-22T07:57:04.745Z,1010.32
2022-10-22T07:58:04.668Z,1010.35
2022-10-22T07:59:04.689Z,1010.37
2022-10-22T08:00:04.633Z,1010.40
2022-10-22T08:01:04.658Z,1010.32
2022-10-22T08:02:04.594Z,1010.43
2022-10-22T08:03:04.587Z,1010.42
2022-10-22T08:04:04.563Z,1010.46
2022-10-22T08:05:04.591Z,1010.42
2022-10-22T08:06:04.537Z,1010.45
2022-10-22T08:07:04.531Z,1010.49
2022-10-22T08:08:04.513Z,1010.51
2022-10-22T08:09:04.560Z,1010.50
2022-10-22T08:10:04.527Z,1010.48
2022-10-22T08:12:25.665Z,1010.45
2022-10-22T08:16:41.168Z,1010.61
2022-10-22T08:17:45.091Z,1010.61
2022-10-22T08:19:54.040Z,1010.67
2022-10-22T08:20:54.204Z,1010.72
2022-10-22T08:21:54.019Z,1010.68
2022-10-22T08:22:53.978Z,1010.68
2022-10-22T08:23:53.924Z,1010.67
2022-10-22T08:24:54.059Z,1010.67
2022-10-22T08:27:36.106Z,1010.73
2022-10-22T08:28:36.074Z,1010.68
2022-10-22T08:29:40.855Z,1010.75
2022-10-22T08:30:48.850Z,1010.77
2022-10-22T08:31:36.180Z,1010.76
2022-10-22T08:34:18.817Z,1010.79
2022-10-22T08:35:20.063Z,1010.78
2022-10-22T08:39:00.206Z,1010.80
2022-10-22T08:40:01.109Z,1010.89
2022-10-22T08:41:00.128Z,1010.85
2022-10-22T08:53:18.914Z,1010.91
2022-10-22T08:54:14.580Z,1010.99
2022-10-22T08:55:14.550Z,1010.97
2022-10-22T08:56:14.564Z,1010.98
2022-10-22T08:57:14.514Z,1011.00
2022-10-22T08:58:14.501Z,1011.03
2022-10-22T08:59:14.504Z,1011.10
2022-10-22T09:00:14.640Z,1011.05
2022-10-22T09:01:14.600Z,1011.13
2022-10-22T09:02:14.452Z,1011.19
2022-10-22T09:03:14.531Z,1011.16
2022-10-22T09:04:14.413Z,1011.14
2022-10-22T09:05:14.743Z,1011.20
2022-10-22T09:06:14.469Z,1011.09
2022-10-22T09:07:14.488Z,1011.14
2022-10-22T09:08:14.475Z,1011.15
2022-10-22T09:09:14.496Z,1011.13
2022-10-22T09:10:14.530Z,1011.17
2022-10-22T09:11:15.353Z,1011.19
2022-10-22T09:12:19.186Z,1011.16
2022-10-22T09:13:15.298Z,1011.22
2022-10-22T09:15:14.387Z,1011.21
2022-10-22T09:16:14.264Z,1011.22
2022-10-22T09:17:14.309Z,1011.20
2022-10-22T09:18:14.271Z,1011.21
2022-10-22T09:20:39.878Z,1011.22
2022-10-22T09:24:43.037Z,1011.34
2022-10-22T09:25:40.943Z,1011.25
2022-10-22T09:26:40.829Z,1011.37
2022-10-22T09:27:41.072Z,1011.30
2022-10-22T09:44:17.748Z,1011.39
2022-10-22T10:02:13.666Z,1011.72
2022-10-22T10:03:03.650Z,1011.61
2022-10-22T10:04:06.925Z,1011.71
2022-10-22T10:05:03.591Z,1011.68
2022-10-22T10:06:05.066Z,1011.78
2022-10-22T10:07:02.564Z,1011.75
2022-10-22T10:08:02.585Z,1011.74
2022-10-22T10:09:02.623Z,1011.74
2022-10-22T10:10:02.538Z,1011.84
2022-10-22T10:11:02.576Z,1011.74
2022-10-22T10:12:02.507Z,1011.76
2022-10-22T10:13:02.513Z,1011.82
2022-10-22T10:14:02.423Z,1011.89
2022-10-22T10:15:02.465Z,1011.86
2022-10-22T10:16:02.476Z,1011.82
2022-10-22T10:17:02.763Z,1011.87
2022-10-22T10:18:02.512Z,1011.82
2022-10-22T10:19:02.403Z,1011.86
2022-10-22T10:20:04.073Z,1011.84
2022-10-22T10:22:02.348Z,1011.91
2022-10-22T10:23:03.071Z,1011.92
2022-10-22T10:24:02.318Z,1011.93
2022-10-22T10:25:02.323Z,1011.98
2022-10-22T10:26:02.411Z,1011.97
2022-10-22T10:27:02.282Z,1011.96
2022-10-22T10:28:03.191Z,1011.96
2022-10-22T10:29:02.285Z,1012.00
2022-10-22T10:30:02.395Z,1012.00
2022-10-22T10:31:02.275Z,1012.00
2022-10-22T10:32:02.200Z,1012.03
2022-10-22T10:33:02.265Z,1012.02
2022-10-22T10:34:02.344Z,1011.98
2022-10-22T10:35:02.200Z,1011.98
2022-10-22T10:36:02.190Z,1012.00
2022-10-22T10:37:02.152Z,1012.00
2022-10-22T10:38:02.131Z,1012.04
2022-10-22T10:39:02.159Z,1012.02
2022-10-22T10:40:02.175Z,1012.03
2022-10-22T10:41:02.140Z,1012.09
2022-10-22T10:42:02.123Z,1012.05
2022-10-22T10:43:02.193Z,1012.11
2022-10-22T10:44:02.216Z,1012.04
2022-10-22T10:45:02.474Z,1012.10
2022-10-22T10:47:02.327Z,1012.09
2022-10-22T10:48:02.275Z,1012.08
2022-10-22T10:49:03.357Z,1012.17
2022-10-22T10:50:02.357Z,1012.08
2022-10-22T10:51:02.534Z,1012.11
2022-10-22T10:52:02.213Z,1012.06
2022-10-22T10:53:02.217Z,1012.09
2022-10-22T10:54:02.173Z,1012.13
2022-10-22T10:55:02.207Z,1012.11
2022-10-22T10:56:02.131Z,1012.17
2022-10-22T10:57:02.139Z,1012.20
2022-10-22T10:58:02.074Z,1012.18
2022-10-22T10:59:02.127Z,1012.18
2022-10-22T11:00:02.041Z,1012.20
2022-10-22T11:01:02.067Z,1012.18
2022-10-22T11:02:03.240Z,1012.14
2022-10-22T11:03:02.151Z,1012.21
2022-10-22T11:04:03.156Z,1012.17
2022-10-22T11:05:02.196Z,1012.13
2022-10-22T11:06:02.595Z,1012.18
2022-10-22T11:08:47.162Z,1012.19
2022-10-22T11:09:26.297Z,1012.26
2022-10-22T11:10:22.931Z,1012.17
2022-10-22T11:11:24.100Z,1012.22
2022-10-22T11:12:24.156Z,1012.23
2022-10-22T11:13:22.958Z,1012.15
2022-10-22T11:14:25.325Z,1012.19
2022-10-22T11:15:22.805Z,1012.20
2022-10-22T11:16:22.837Z,1012.19
2022-10-22T11:17:27.998Z,1012.21
2022-10-22T11:25:22.696Z,1012.28
2022-10-22T11:26:07.794Z,1012.18
2022-10-22T11:27:05.121Z,1012.26
2022-10-22T11:28:09.163Z,1012.26
2022-10-22T11:29:05.065Z,1012.30
2022-10-22T11:30:04.034Z,1012.25
2022-10-22T11:31:04.056Z,1012.24
2022-10-22T11:32:04.039Z,1012.26
2022-10-22T11:33:03.989Z,1012.23
2022-10-22T11:34:09.896Z,1012.26
2022-10-22T11:35:04.973Z,1012.26
2022-10-22T11:36:03.963Z,1012.26
2022-10-22T11:37:03.940Z,1012.23
2022-10-22T11:38:03.983Z,1012.23
2022-10-22T11:39:03.924Z,1012.29
2022-10-22T11:40:03.911Z,1012.27
2022-10-22T11:41:03.901Z,1012.30
2022-10-22T11:42:03.879Z,1012.32
2022-10-22T11:43:03.855Z,1012.31
2022-10-22T11:44:03.884Z,1012.28
2022-10-22T11:45:03.840Z,1012.26
2022-10-22T11:46:03.828Z,1012.27
2022-10-22T11:47:03.821Z,1012.24
2022-10-22T11:48:03.824Z,1012.27
2022-10-22T11:49:03.807Z,1012.28
2022-10-22T11:50:03.766Z,1012.30
2022-10-22T11:51:03.761Z,1012.31
2022-10-22T11:52:05.119Z,1012.32
2022-10-22T11:53:03.869Z,1012.23
2022-10-22T11:54:03.741Z,1012.27
2022-10-22T11:55:03.697Z,1012.29
2022-10-22T11:56:03.687Z,1012.23
2022-10-22T11:57:03.687Z,1012.19
2022-10-22T11:58:03.679Z,1012.22
2022-10-22T11:59:03.664Z,1012.20
2022-10-22T12:00:03.637Z,1012.22
2022-10-22T12:01:03.630Z,1012.18
2022-10-22T12:02:03.640Z,1012.23
2022-10-22T12:03:03.653Z,1012.14
2022-10-22T12:04:03.656Z,1012.22
2022-10-22T12:05:03.568Z,1012.16
2022-10-22T12:06:03.590Z,1012.17
2022-10-22T12:07:03.559Z,1012.18
2022-10-22T12:08:03.556Z,1012.19
2022-10-22T12:09:03.725Z,1012.18
2022-10-22T12:10:03.542Z,1012.16
2022-10-22T12:11:03.530Z,1012.22
2022-10-22T12:12:03.476Z,1012.23
2022-10-22T12:13:03.466Z,1012.17
2022-10-22T12:14:03.497Z,1012.15
2022-10-22T12:15:03.449Z,1012.11
2022-10-22T12:16:03.446Z,1012.12
2022-10-22T12:17:03.430Z,1012.11
2022-10-22T12:18:03.479Z,1012.12
2022-10-22T12:19:03.388Z,1012.13
2022-10-22T12:20:03.426Z,1012.07
2022-10-22T12:21:03.364Z,1012.18
2022-10-22T12:22:03.381Z,1012.11
2022-10-22T12:23:03.353Z,1012.17
2022-10-22T12:24:03.341Z,1012.12
2022-10-22T12:25:03.336Z,1012.14
2022-10-22T12:26:11.185Z,1012.14
2022-10-22T12:27:03.340Z,1012.09
2022-10-22T12:28:04.375Z,1012.11
2022-10-22T12:29:03.258Z,1012.11
2022-10-22T12:30:03.262Z,1012.10
2022-10-22T12:31:03.228Z,1012.11
2022-10-22T12:32:03.270Z,1012.12
2022-10-22T12:33:03.234Z,1012.11
2022-10-22T12:34:03.187Z,1012.11
2022-10-22T12:35:03.222Z,1012.12
2022-10-22T12:36:03.209Z,1012.09
2022-10-22T12:37:03.148Z,1012.13
2022-10-22T12:38:03.167Z,1012.13
2022-10-22T12:39:03.138Z,1012.07
2022-10-22T12:40:03.149Z,1012.05
2022-10-22T12:41:03.129Z,1012.10
2022-10-22T12:42:03.088Z,1012.06
2022-10-22T12:43:03.181Z,1012.06
2022-10-22T12:44:03.059Z,1012.05
2022-10-22T12:45:03.085Z,1012.07
2022-10-22T12:46:12.699Z,1012.03
2022-10-22T12:47:04.236Z,1012.00
2022-10-22T12:48:13.947Z,1011.90
2022-10-22T12:49:03.054Z,1011.92
2022-10-22T12:51:20.972Z,1011.89
2022-10-22T12:52:20.180Z,1011.89
2022-10-22T12:53:20.177Z,1011.89
2022-10-22T12:54:20.164Z,1011.84
2022-10-22T12:55:20.267Z,1011.81
2022-10-22T12:56:20.129Z,1011.84
2022-10-22T12:57:20.138Z,1011.78
2022-10-22T12:58:20.356Z,1011.79
2022-10-22T12:59:21.120Z,1011.81
2022-10-22T13:00:20.079Z,1011.82
2022-10-22T13:01:20.159Z,1011.83
2022-10-22T13:02:20.113Z,1011.81
2022-10-22T13:04:40.253Z,1011.75
2022-10-22T13:05:40.519Z,1011.76
2022-10-22T13:06:39.532Z,1011.75
2022-10-22T13:07:39.577Z,1011.73
2022-10-22T13:08:39.497Z,1011.70
2022-10-22T13:09:39.416Z,1011.72
2022-10-22T13:10:39.419Z,1011.67
2022-10-22T13:11:39.406Z,1011.77
2022-10-22T13:12:39.742Z,1011.71
2022-10-22T13:13:39.413Z,1011.76
2022-10-22T13:14:39.361Z,1011.72
2022-10-22T13:15:39.335Z,1011.73
2022-10-22T13:16:39.330Z,1011.83
2022-10-22T13:17:39.609Z,1011.85
2022-10-22T13:18:39.335Z,1011.86
2022-10-22T13:19:39.325Z,1011.86
2022-10-22T13:20:39.506Z,1011.84
2022-10-22T13:21:39.410Z,1011.86